createdAt,value
2023-04-29T00:01:16.999Z,94413.50
2023-04-29T00:04:10.425Z,94415.88
2023-04-29T00:06:39.007Z,94414.09
2023-04-29T00:09:07.458Z,94421.41
2023-04-29T00:11:36.264Z,94418.53
2023-04-29T00:14:04.773Z,94413.97
2023-04-29T00:16:34.655Z,94420.44
2023-04-29T00:19:03.462Z,94422.06
2023-04-29T00:21:33.284Z,94421.66
2023-04-29T00:24:01.745Z,94413.25
2023-04-29T00:26:36.072Z,94434.72
2023-04-29T00:29:04.583Z,94435.06
2023-04-29T00:31:34.461Z,94436.25
2023-04-29T00:34:03.043Z,94437.44
2023-04-29T00:36:32.466Z,94435.25
2023-04-29T00:39:00.937Z,94425.19
2023-04-29T00:41:29.417Z,94422.91
2023-04-29T00:43:57.817Z,94423.50
2023-04-29T00:46:26.413Z,94421.91
2023-04-29T00:48:56.307Z,94423.75
2023-04-29T00:51:25.482Z,94420.41
2023-04-29T00:53:54.465Z,94409.25
2023-04-29T00:56:23.704Z,94406.50
2023-04-29T00:58:53.147Z,94401.72
2023-04-29T01:01:22.429Z,94402.22
2023-04-29T01:03:51.687Z,94404.66
2023-04-29T01:06:38.563Z,94400.28
2023-04-29T01:09:36.972Z,94393.34
2023-04-29T01:12:36.347Z,94393.78
2023-04-29T01:15:13.152Z,94400.59
2023-04-29T01:17:50.722Z,94391.19
2023-04-29T01:20:38.745Z,94393.59
2023-04-29T01:23:08.560Z,94393.22
2023-04-29T01:25:38.864Z,94399.19
2023-04-29T01:28:21.534Z,94386.25
2023-04-29T01:31:02.079Z,94392.75
2023-04-29T01:34:07.874Z,94395.97
2023-04-29T01:36:54.316Z,94388.22
2023-04-29T01:39:34.861Z,94377.88
2023-04-29T01:42:19.336Z,94381.84
2023-04-29T01:44:51.088Z,94387.69
2023-04-29T01:47:21.687Z,94384.06
2023-04-29T01:49:51.320Z,94384.84
2023-04-29T01:52:28.802Z,94392.38
2023-04-29T01:54:57.620Z,94385.03
2023-04-29T01:57:27.545Z,94384.66
2023-04-29T01:59:57.297Z,94390.69
2023-04-29T02:02:25.860Z,94398.06
2023-04-29T02:04:54.814Z,94388.50
2023-04-29T02:07:29.653Z,94398.06
2023-04-29T02:09:58.110Z,94403.63
2023-04-29T02:12:28.011Z,94396.66
2023-04-29T02:14:56.538Z,94409.44
2023-04-29T02:17:25.066Z,94400.47
2023-04-29T02:19:55.051Z,94403.47
2023-04-29T02:22:23.788Z,94400.31
2023-04-29T02:24:52.302Z,94392.09
2023-04-29T02:27:20.884Z,94393.28
2023-04-29T02:29:51.693Z,94398.28
2023-04-29T02:32:21.167Z,94391.50
2023-04-29T02:34:49.720Z,94393.84
2023-04-29T02:37:18.434Z,94385.84
2023-04-29T02:39:47.160Z,94381.06
2023-04-29T02:42:15.722Z,94381.47
2023-04-29T02:44:44.150Z,94391.81
2023-04-29T02:47:14.057Z,94378.66
2023-04-29T02:49:42.566Z,94387.66
2023-04-29T02:52:11.097Z,94398.81
2023-04-29T02:54:40.182Z,94405.41
2023-04-29T02:57:09.123Z,94403.81
2023-04-29T02:59:38.104Z,94398.25
2023-04-29T03:02:06.655Z,94400.66
2023-04-29T03:04:36.625Z,94410.22
2023-04-29T03:07:05.420Z,94404.47
2023-04-29T03:09:59.703Z,94410.22
2023-04-29T03:12:28.309Z,94405.06
2023-04-29T03:14:57.009Z,94419.38
2023-04-29T03:17:25.595Z,94418.00
2023-04-29T03:19:55.526Z,94424.00
2023-04-29T03:22:23.956Z,94429.56
2023-04-29T03:24:52.494Z,94441.09
2023-04-29T03:27:20.980Z,94442.28
2023-04-29T03:29:49.439Z,94442.28
2023-04-29T03:32:18.105Z,94437.13
2023-04-29T03:34:46.540Z,94442.69
2023-04-29T03:37:17.044Z,94429.75
2023-04-29T03:39:45.542Z,94437.50
2023-04-29T03:42:14.064Z,94433.75
2023-04-29T03:44:42.656Z,94434.31
2023-04-29T03:47:11.099Z,94425.38
2023-04-29T03:49:39.756Z,94424.19
2023-04-29T03:52:08.316Z,94427.97
2023-04-29T03:54:38.182Z,94439.91
2023-04-29T03:57:06.672Z,94440.28
2023-04-29T03:59:35.190Z,94436.13
2023-04-29T04:02:03.718Z,94443.50
2023-04-29T04:04:32.517Z,94452.66
2023-04-29T04:07:01.078Z,94443.50
2023-04-29T04:09:29.549Z,94443.09
2023-04-29T04:12:00.214Z,94449.84
2023-04-29T04:14:55.533Z,94453.22
2023-04-29T04:17:24.105Z,94450.19
2023-04-29T04:19:52.968Z,94449.16
2023-04-29T04:22:21.694Z,94438.34
2023-04-29T04:25:15.680Z,94436.94
2023-04-29T04:27:45.861Z,94439.53
2023-04-29T04:30:14.774Z,94433.25
2023-04-29T04:32:43.268Z,94444.34
2023-04-29T04:35:11.852Z,94449.44
2023-04-29T04:37:40.393Z,94439.78
2023-04-29T04:40:11.412Z,94442.16
2023-04-29T04:42:39.888Z,94440.25
2023-04-29T04:45:11.885Z,94444.50
2023-04-29T04:47:43.166Z,94440.41
2023-04-29T04:50:12.052Z,94444.50
2023-04-29T04:52:40.561Z,94424.44
2023-04-29T04:55:11.328Z,94427.94
2023-04-29T04:57:41.099Z,94433.00
2023-04-29T05:00:13.392Z,94424.94
2023-04-29T05:02:42.006Z,94426.53
2023-04-29T05:05:10.827Z,94432.53
2023-04-29T05:07:39.871Z,94426.69
2023-04-29T05:10:10.062Z,94429.16
2023-04-29T05:13:03.351Z,94425.50
2023-04-29T05:15:58.802Z,94415.72
2023-04-29T05:18:56.325Z,94409.75
2023-04-29T05:21:24.855Z,94411.94
2023-04-29T05:23:53.333Z,94412.41
2023-04-29T05:26:21.861Z,94407.75
2023-04-29T05:28:50.447Z,94403.38
2023-04-29T05:31:20.289Z,94406.88
2023-04-29T05:33:49.124Z,94409.59
2023-04-29T05:36:17.609Z,94416.38
2023-04-29T05:38:46.384Z,94416.63
2023-04-29T05:41:15.239Z,94405.25
2023-04-29T05:43:43.750Z,94414.63
2023-04-29T05:46:12.346Z,94423.25
2023-04-29T05:48:42.221Z,94429.34
2023-04-29T05:51:10.851Z,94422.59
2023-04-29T05:53:40.674Z,94428.06
2023-04-29T05:56:09.249Z,94419.63
2023-04-29T05:58:38.027Z,94414.16
2023-04-29T06:01:07.214Z,94421.78
2023-04-29T06:03:36.030Z,94416.91
2023-04-29T06:06:06.354Z,94402.38
2023-04-29T06:08:34.992Z,94409.25
2023-04-29T06:11:11.400Z,94414.16
2023-04-29T06:13:39.855Z,94412.31
2023-04-29T06:16:08.994Z,94419.16
2023-04-29T06:18:37.513Z,94417.34
2023-04-29T06:21:07.501Z,94419.72
2023-04-29T06:23:35.999Z,94413.28
2023-04-29T06:26:04.478Z,94408.25
2023-04-29T06:28:32.924Z,94409.44
2023-04-29T06:31:01.454Z,94408.47
2023-04-29T06:33:30.523Z,94394.06
2023-04-29T06:35:58.932Z,94393.19
2023-04-29T06:38:28.799Z,94399.28
2023-04-29T06:41:00.666Z,94402.28
2023-04-29T06:43:29.187Z,94399.34
2023-04-29T06:45:57.935Z,94397.94
2023-04-29T06:48:27.601Z,94400.13
2023-04-29T06:50:58.175Z,94406.53
2023-04-29T06:53:28.266Z,94416.09
2023-04-29T06:55:56.912Z,94407.84
2023-04-29T06:58:25.456Z,94407.94
2023-04-29T07:01:29.488Z,94405.16
2023-04-29T07:03:58.186Z,94403.75
2023-04-29T07:06:26.962Z,94397.81
2023-04-29T07:08:57.200Z,94389.78
2023-04-29T07:11:34.888Z,94391.00
2023-04-29T07:14:03.301Z,94392.66
2023-04-29T07:16:31.799Z,94384.31
2023-04-29T07:19:00.454Z,94387.75
2023-04-29T07:21:28.927Z,94379.06
2023-04-29T07:24:01.145Z,94380.38
2023-04-29T07:26:29.710Z,94383.56
2023-04-29T07:28:58.189Z,94374.59
2023-04-29T07:31:26.800Z,94372.78
2023-04-29T07:33:55.551Z,94375.91
2023-04-29T07:36:24.101Z,94380.66
2023-04-29T07:38:52.843Z,94380.38
2023-04-29T07:41:22.576Z,94371.44
2023-04-29T07:43:51.045Z,94371.19
2023-04-29T07:46:19.512Z,94373.78
2023-04-29T07:48:47.971Z,94373.31
2023-04-29T07:51:17.004Z,94365.13
2023-04-29T07:53:45.442Z,94374.88
2023-04-29T07:56:13.870Z,94362.75
2023-04-29T07:58:43.697Z,94356.72
2023-04-29T08:01:13.051Z,94356.69
2023-04-29T08:03:42.338Z,94361.44
2023-04-29T08:06:11.009Z,94353.75
2023-04-29T08:08:39.586Z,94346.88
2023-04-29T08:11:07.972Z,94348.13
2023-04-29T08:13:36.450Z,94352.06
2023-04-29T08:16:06.769Z,94338.81
2023-04-29T08:18:36.729Z,94341.44
2023-04-29T08:21:05.388Z,94331.84
2023-04-29T08:23:34.234Z,94333.66
2023-04-29T08:26:03.574Z,94336.28
2023-04-29T08:28:32.119Z,94340.28
2023-04-29T08:31:00.624Z,94335.56
2023-04-29T08:33:30.523Z,94338.97
2023-04-29T08:36:03.739Z,94332.94
2023-04-29T08:38:32.415Z,94337.06
2023-04-29T08:41:00.855Z,94340.97
2023-04-29T08:43:30.023Z,94337.78
2023-04-29T08:46:00.523Z,94335.06
2023-04-29T08:48:31.745Z,94335.44
2023-04-29T08:51:01.814Z,94338.09
2023-04-29T08:53:30.475Z,94333.41
2023-04-29T08:56:04.961Z,94330.25
2023-04-29T08:58:40.426Z,94320.50
2023-04-29T09:01:10.838Z,94316.91
2023-04-29T09:03:48.198Z,94319.94
2023-04-29T09:06:17.822Z,94316.28
2023-04-29T09:08:46.505Z,94322.66
2023-04-29T09:11:16.274Z,94323.59
2023-04-29T09:13:44.697Z,94310.38
2023-04-29T09:16:13.994Z,94312.19
2023-04-29T09:18:49.554Z,94303.50
2023-04-29T09:21:22.378Z,94305.28
2023-04-29T09:23:54.120Z,94308.41
2023-04-29T09:26:24.210Z,94298.31
2023-04-29T09:29:10.084Z,94300.88
2023-04-29T09:31:40.401Z,94300.34
2023-04-29T09:34:11.886Z,94297.91
2023-04-29T09:36:46.358Z,94298.41
2023-04-29T09:39:17.560Z,94287.31
2023-04-29T09:42:07.332Z,94280.75
2023-04-29T09:44:37.036Z,94275.63
2023-04-29T09:47:07.814Z,94273.88
2023-04-29T09:49:41.192Z,94277.69
2023-04-29T09:52:12.467Z,94263.88
2023-04-29T09:54:43.040Z,94261.25
2023-04-29T09:57:15.055Z,94256.41
2023-04-29T09:59:44.395Z,94259.63
2023-04-29T10:02:17.850Z,94257.06
2023-04-29T10:04:57.456Z,94246.06
2023-04-29T10:07:29.482Z,94245.59
2023-04-29T10:09:58.746Z,94248.13
2023-04-29T10:12:27.515Z,94245.38
2023-04-29T10:15:04.986Z,94246.66
2023-04-29T10:17:47.155Z,94253.44
2023-04-29T10:20:23.820Z,94235.84
2023-04-29T10:22:54.851Z,94235.84
2023-04-29T10:25:26.267Z,94237.63
2023-04-29T10:27:56.704Z,94233.50
2023-04-29T10:30:25.362Z,94237.13
2023-04-29T10:32:54.035Z,94223.16
2023-04-29T10:35:24.510Z,94223.47
2023-04-29T10:37:54.759Z,94221.06
2023-04-29T10:40:31.907Z,94217.78
2023-04-29T10:43:01.296Z,94211.19
2023-04-29T10:45:32.629Z,94207.81
2023-04-29T10:48:26.793Z,94213.88
2023-04-29T10:51:03.870Z,94204.66
2023-04-29T10:54:08.539Z,94211.03
2023-04-29T10:56:42.938Z,94208.72
2023-04-29T10:59:14.408Z,94207.38
2023-04-29T11:01:51.696Z,94208.22
2023-04-29T11:04:27.775Z,94208.75
2023-04-29T11:06:59.666Z,94204.94
2023-04-29T11:09:30.376Z,94200.53
2023-04-29T11:12:05.502Z,94199.50
2023-04-29T11:14:38.033Z,94198.31
2023-04-29T11:17:11.044Z,94200.09
2023-04-29T11:19:45.157Z,94194.13
2023-04-29T11:22:26.716Z,94192.06
2023-04-29T11:24:58.693Z,94193.84
2023-04-29T11:27:31.458Z,94185.81
2023-04-29T11:30:09.473Z,94178.31
2023-04-29T11:32:40.565Z,94188.06
2023-04-29T11:35:10.696Z,94186.78
2023-04-29T11:37:41.793Z,94195.31
2023-04-29T11:40:13.167Z,94193.06
2023-04-29T11:42:45.398Z,94186.56
2023-04-29T11:45:15.253Z,94189.31
2023-04-29T11:47:46.646Z,94186.28
2023-04-29T11:50:17.864Z,94174.72
2023-04-29T11:52:49.629Z,94180.50
2023-04-29T11:55:19.652Z,94181.00
2023-04-29T11:57:52.374Z,94179.13
2023-04-29T12:00:36.946Z,94181.47
2023-04-29T12:03:16.031Z,94176.00
2023-04-29T12:05:49.520Z,94175.28
2023-04-29T12:08:22.756Z,94168.91
2023-04-29T12:10:51.910Z,94174.09
2023-04-29T12:13:22.181Z,94172.03
2023-04-29T12:15:52.522Z,94167.31
2023-04-29T12:18:23.430Z,94166.16
2023-04-29T12:20:52.653Z,94155.34
2023-04-29T12:23:26.727Z,94161.41
2023-04-29T12:25:59.326Z,94154.25
2023-04-29T12:28:28.462Z,94147.28
2023-04-29T12:30:56.867Z,94155.13
2023-04-29T12:33:27.570Z,94157.66
2023-04-29T12:35:58.275Z,94157.06
2023-04-29T12:38:31.107Z,94144.09
2023-04-29T12:41:02.870Z,94152.69
2023-04-29T12:43:35.069Z,94140.28
2023-04-29T12:46:05.554Z,94146.56
2023-04-29T12:48:37.262Z,94141.88
2023-04-29T12:51:07.012Z,94145.03
2023-04-29T12:53:37.251Z,94138.81
2023-04-29T12:56:06.898Z,94140.72
2023-04-29T12:58:35.449Z,94135.19
2023-04-29T13:01:04.377Z,94143.47
2023-04-29T13:03:34.284Z,94131.28
2023-04-29T13:06:03.125Z,94133.63
2023-04-29T13:08:31.686Z,94122.84
2023-04-29T13:11:01.554Z,94122.34
2023-04-29T13:13:30.313Z,94124.59
2023-04-29T13:15:58.836Z,94128.88
2023-04-29T13:18:27.729Z,94123.44
2023-04-29T13:20:57.288Z,94122.72
2023-04-29T13:23:25.994Z,94123.53
2023-04-29T13:25:54.537Z,94115.25
2023-04-29T13:28:24.455Z,94118.97
2023-04-29T13:30:52.954Z,94116.03
2023-04-29T13:33:21.395Z,94114.50
2023-04-29T13:35:50.063Z,94109.34
2023-04-29T13:38:18.809Z,94117.25
2023-04-29T13:40:51.207Z,94113.00
2023-04-29T13:44:02.524Z,94108.97
2023-04-29T13:46:32.654Z,94110.56
2023-04-29T13:52:16.918Z,94092.53
2023-04-29T13:57:39.340Z,94097.88
2023-04-29T13:59:50.617Z,94099.16
2023-04-29T14:02:25.753Z,94089.03
2023-04-29T14:04:55.644Z,94090.19
2023-04-29T14:07:24.397Z,94085.56
2023-04-29T14:09:52.996Z,94084.25
2023-04-29T14:12:21.668Z,94091.13
2023-04-29T14:14:51.909Z,94087.53
2023-04-29T14:17:20.551Z,94090.59
2023-04-29T14:19:48.971Z,94078.66
2023-04-29T14:22:17.521Z,94083.59
2023-04-29T14:24:46.453Z,94092.19
2023-04-29T14:27:15.038Z,94080.03
2023-04-29T14:29:43.576Z,94076.13
2023-04-29T14:32:13.500Z,94084.44
2023-04-29T14:34:42.532Z,94079.13
2023-04-29T14:37:11.282Z,94072.22
2023-04-29T14:39:39.776Z,94069.34
2023-04-29T14:42:08.297Z,94073.09
2023-04-29T14:44:48.993Z,94074.19
2023-04-29T14:47:18.865Z,94078.50
2023-04-29T14:50:27.750Z,94078.81
2023-04-29T14:52:57.794Z,94076.06
2023-04-29T14:55:26.288Z,94074.41
2023-04-29T14:57:54.870Z,94066.88
2023-04-29T15:00:23.296Z,94069.13
2023-04-29T15:02:55.705Z,94061.41
2023-04-29T15:05:24.194Z,94054.53
2023-04-29T15:07:52.882Z,94050.44
2023-04-29T15:10:21.518Z,94056.50
2023-04-29T15:12:51.354Z,94049.13
2023-04-29T15:15:44.819Z,94052.69
2023-04-29T15:18:14.851Z,94055.22
2023-04-29T15:20:43.608Z,94049.06
2023-04-29T15:23:12.214Z,94049.25
2023-04-29T15:25:40.572Z,94052.00
2023-04-29T15:28:18.579Z,94047.25
2023-04-29T15:30:47.653Z,94046.28
2023-04-29T15:33:17.569Z,94052.38
2023-04-29T15:35:46.461Z,94044.00
2023-04-29T15:38:14.958Z,94043.03
2023-04-29T15:40:43.389Z,94044.59
2023-04-29T15:43:36.422Z,94042.94
2023-04-29T15:46:55.015Z,94046.06
2023-04-29T15:49:25.970Z,94044.38
2023-04-29T15:51:54.403Z,94041.53
2023-04-29T15:54:23.168Z,94043.66
2023-04-29T15:56:51.947Z,94052.50
2023-04-29T15:59:20.451Z,94046.22
2023-04-29T16:01:48.996Z,94041.50
2023-04-29T16:04:17.669Z,94048.16
2023-04-29T16:06:47.576Z,94042.66
2023-04-29T16:09:16.211Z,94047.75
2023-04-29T16:11:44.612Z,94052.81
2023-04-29T16:14:13.102Z,94050.25
2023-04-29T16:16:41.647Z,94047.22
2023-04-29T16:19:10.620Z,94058.63
2023-04-29T16:21:39.706Z,94048.91
2023-04-29T16:24:09.484Z,94055.34
2023-04-29T16:26:40.375Z,94059.91
2023-04-29T16:29:09.534Z,94056.34
2023-04-29T16:31:38.179Z,94058.28
2023-04-29T16:34:06.720Z,94058.84
2023-04-29T16:36:44.329Z,94067.34
2023-04-29T16:39:14.256Z,94065.69
2023-04-29T16:41:43.061Z,94075.28
2023-04-29T16:44:11.807Z,94078.19
2023-04-29T16:46:40.413Z,94091.06
2023-04-29T16:49:09.137Z,94086.81
2023-04-29T16:51:37.650Z,94085.06
2023-04-29T16:54:08.066Z,94070.13
2023-04-29T16:56:37.962Z,94076.53
2023-04-29T16:59:06.594Z,94080.66
2023-04-29T17:01:35.121Z,94074.16
2023-04-29T17:04:04.145Z,94079.50
2023-04-29T17:06:34.792Z,94078.25
2023-04-29T17:09:03.628Z,94076.22
2023-04-29T17:11:32.133Z,94082.63
2023-04-29T17:14:01.956Z,94078.69
2023-04-29T17:16:31.282Z,94080.03
2023-04-29T17:19:00.020Z,94084.78
2023-04-29T17:21:32.482Z,94074.22
2023-04-29T17:24:01.047Z,94088.69
2023-04-29T17:26:48.513Z,94084.50
2023-04-29T17:29:18.485Z,94093.53
2023-04-29T17:31:54.124Z,94090.44
2023-04-29T17:34:25.746Z,94099.94
2023-04-29T17:36:54.987Z,94098.94
2023-04-29T17:39:23.524Z,94111.66
2023-04-29T17:41:52.066Z,94107.50
2023-04-29T17:44:23.463Z,94108.88
2023-04-29T17:46:52.260Z,94106.03
2023-04-29T17:49:20.891Z,94098.88
2023-04-29T17:51:49.362Z,94101.75
2023-04-29T17:54:17.903Z,94100.16
2023-04-29T17:56:46.349Z,94104.88
2023-04-29T17:59:14.810Z,94108.31
2023-04-29T18:01:44.672Z,94105.47
2023-04-29T18:04:13.455Z,94107.63
2023-04-29T18:06:42.050Z,94108.44
2023-04-29T18:09:10.524Z,94110.34
2023-04-29T18:11:39.092Z,94102.19
2023-04-29T18:14:30.640Z,94106.72
2023-04-29T18:17:01.378Z,94105.97
2023-04-29T18:19:29.828Z,94110.44
2023-04-29T18:21:59.295Z,94103.63
2023-04-29T18:24:29.053Z,94104.16
2023-04-29T18:26:58.013Z,94113.66
2023-04-29T18:29:54.202Z,94116.06
2023-04-29T18:32:24.285Z,94113.19
2023-04-29T18:34:52.797Z,94117.41
2023-04-29T18:37:21.282Z,94113.75
2023-04-29T18:39:49.798Z,94121.09
2023-04-29T18:42:18.404Z,94125.53
2023-04-29T18:44:48.285Z,94119.22
2023-04-29T18:47:16.790Z,94125.34
2023-04-29T18:49:46.757Z,94128.50
2023-04-29T18:52:15.338Z,94128.47
2023-04-29T18:54:43.782Z,94136.38
2023-04-29T18:57:12.278Z,94126.59
2023-04-29T18:59:40.782Z,94129.78
2023-04-29T19:02:09.683Z,94133.22
2023-04-29T19:05:12.897Z,94129.56
2023-04-29T19:07:41.358Z,94134.06
2023-04-29T19:10:10.874Z,94131.94
2023-04-29T19:12:39.433Z,94128.53
2023-04-29T19:15:09.270Z,94130.94
2023-04-29T19:17:37.734Z,94133.34
2023-04-29T19:20:08.175Z,94135.41
2023-04-29T19:22:38.701Z,94130.16
2023-04-29T19:25:08.047Z,94138.63
2023-04-29T19:27:55.020Z,94138.09
2023-04-29T19:30:23.631Z,94132.56
2023-04-29T19:32:52.159Z,94139.41
2023-04-29T19:35:20.740Z,94138.91
2023-04-29T19:37:50.595Z,94143.38
2023-04-29T19:40:19.446Z,94142.59
2023-04-29T19:42:47.931Z,94141.25
2023-04-29T19:45:16.562Z,94133.91
2023-04-29T19:47:45.117Z,94140.47
2023-04-29T19:50:13.595Z,94139.44
2023-04-29T19:52:42.113Z,94143.38
2023-04-29T19:55:12.152Z,94138.38
2023-04-29T19:57:40.860Z,94142.31
2023-04-29T20:00:13.493Z,94129.69
2023-04-29T20:02:42.646Z,94138.63
2023-04-29T20:05:12.453Z,94138.16
2023-04-29T20:07:41.397Z,94137.09
2023-04-29T20:10:12.728Z,94138.16
2023-04-29T20:12:41.639Z,94138.69
2023-04-29T20:15:15.239Z,94147.63
2023-04-29T20:17:43.748Z,94138.44
2023-04-29T20:20:12.824Z,94139.47
2023-04-29T20:22:41.245Z,94136.31
2023-04-29T20:25:11.361Z,94140.78
2023-04-29T20:27:39.858Z,94137.63
2023-04-29T20:30:10.962Z,94140.00
2023-04-29T20:32:42.972Z,94135.25
2023-04-29T20:35:11.541Z,94135.00
2023-04-29T20:37:40.026Z,94127.63
2023-04-29T20:40:12.004Z,94140.25
2023-04-29T20:42:40.527Z,94135.81
2023-04-29T20:45:11.587Z,94129.75
2023-04-29T20:47:40.159Z,94132.41
2023-04-29T20:50:09.920Z,94132.91
2023-04-29T20:52:38.656Z,94123.97
2023-04-29T20:55:08.274Z,94124.53
2023-04-29T20:58:03.231Z,94129.25
2023-04-29T21:00:31.868Z,94136.06
2023-04-29T21:03:05.001Z,94120.84
2023-04-29T21:05:33.535Z,94115.59
2023-04-29T21:08:02.037Z,94123.47
2023-04-29T21:10:30.717Z,94119.81
2023-04-29T21:12:59.179Z,94125.81
2023-04-29T21:15:30.405Z,94124.53
2023-04-29T21:17:58.906Z,94128.22
2023-04-29T21:20:27.660Z,94134.25
2023-04-29T21:22:56.075Z,94125.06
2023-04-29T21:25:25.796Z,94117.97
2023-04-29T21:27:54.212Z,94126.09
2023-04-29T21:30:29.049Z,94124.81
2023-04-29T21:32:57.674Z,94126.34
2023-04-29T21:35:27.686Z,94126.88
2023-04-29T21:38:20.620Z,94127.13
2023-04-29T21:40:50.098Z,94128.94
2023-04-29T21:43:19.651Z,94130.25
2023-04-29T21:45:50.191Z,94128.94
2023-04-29T21:48:20.268Z,94129.19
2023-04-29T21:50:49.092Z,94132.88
2023-04-29T21:53:17.884Z,94141.25
2023-04-29T21:55:46.553Z,94129.19
2023-04-29T21:58:16.155Z,94131.78
2023-04-29T22:00:58.070Z,94129.13
2023-04-29T22:03:28.558Z,94134.91
2023-04-29T22:05:57.325Z,94131.75
2023-04-29T22:08:25.878Z,94130.16
2023-04-29T22:10:54.354Z,94124.66
2023-04-29T22:13:22.728Z,94133.28
2023-04-29T22:15:51.214Z,94132.19
2023-04-29T22:18:19.620Z,94121.22
2023-04-29T22:21:14.367Z,94126.44
2023-04-29T22:23:43.140Z,94126.16
2023-04-29T22:26:11.649Z,94126.44
2023-04-29T22:28:40.072Z,94123.00
2023-04-29T22:31:08.574Z,94125.28
2023-04-29T22:33:37.006Z,94121.84
2023-04-29T22:36:05.827Z,94117.94
2023-04-29T22:38:37.367Z,94116.03
2023-04-29T22:41:08.030Z,94107.38
2023-04-29T22:43:36.567Z,94110.72
2023-04-29T22:46:05.571Z,94100.75
2023-04-29T22:48:34.153Z,94103.53
2023-04-29T22:51:03.710Z,94101.41
2023-04-29T22:53:32.247Z,94105.03
2023-04-29T22:56:02.201Z,94099.66
2023-04-29T22:58:31.586Z,94095.16
2023-04-29T23:01:00.254Z,94096.16
2023-04-29T23:03:29.068Z,94090.69
2023-04-29T23:05:59.529Z,94100.59
2023-04-29T23:08:28.626Z,94094.47
2023-04-29T23:10:57.162Z,94093.22
2023-04-29T23:13:27.101Z,94095.19
2023-04-29T23:15:58.073Z,94087.38
2023-04-29T23:18:26.673Z,94087.09
2023-04-29T23:20:55.347Z,94095.31
2023-04-29T23:23:24.216Z,94095.88
2023-04-29T23:25:52.760Z,94089.97
2023-04-29T23:28:21.267Z,94092.31
2023-04-29T23:30:51.074Z,94081.44
2023-04-29T23:33:19.538Z,94088.03
2023-04-29T23:35:52.116Z,94079.34
2023-04-29T23:38:21.075Z,94079.31
2023-04-29T23:40:49.707Z,94090.19
2023-04-29T23:43:19.427Z,94081.91
2023-04-29T23:45:48.007Z,94083.22
2023-04-29T23:48:17.858Z,94075.28
2023-04-29T23:50:47.230Z,94075.44
2023-04-29T23:53:15.935Z,94071.75
2023-04-29T23:55:44.391Z,94073.03
2023-04-29T23:58:12.962Z,94067.44
